createdAt,value
2023-03-18T00:00:47.689Z,63.14
2023-03-18T00:03:17.532Z,63.02
2023-03-18T00:05:45.626Z,64.46
2023-03-18T00:08:13.671Z,66.55
2023-03-18T00:10:41.487Z,66.67
2023-03-18T00:13:10.491Z,67.33
2023-03-18T00:15:38.362Z,67.20
2023-03-18T00:18:06.575Z,65.63
2023-03-18T00:20:39.495Z,65.29
2023-03-18T00:23:08.776Z,63.22
2023-03-18T00:25:37.716Z,64.17
2023-03-18T00:28:06.455Z,61.54
2023-03-18T00:30:34.777Z,60.85
2023-03-18T00:33:02.639Z,60.76
2023-03-18T00:35:31.416Z,60.45
2023-03-18T00:38:00.780Z,60.17
2023-03-18T00:40:42.990Z,59.75
2023-03-18T00:43:12.598Z,59.05
2023-03-18T00:45:42.714Z,58.24
2023-03-18T00:48:11.141Z,58.38
2023-03-18T00:50:39.012Z,58.02
2023-03-18T00:53:08.313Z,57.73
2023-03-18T00:55:36.145Z,57.84
2023-03-18T00:58:04.172Z,57.41
2023-03-18T01:00:32.311Z,57.47
2023-03-18T01:03:00.392Z,57.84
2023-03-18T01:05:34.139Z,57.87
2023-03-18T01:08:03.117Z,59.15
2023-03-18T01:10:33.454Z,58.36
2023-03-18T01:13:02.003Z,58.69
2023-03-18T01:15:30.371Z,58.52
2023-03-18T01:17:58.472Z,58.82
2023-03-18T01:20:27.512Z,58.72
2023-03-18T01:22:58.524Z,57.91
2023-03-18T01:25:28.738Z,57.91
2023-03-18T01:27:58.318Z,59.00
2023-03-18T01:30:26.397Z,58.13
2023-03-18T01:32:55.625Z,58.63
2023-03-18T01:35:23.852Z,57.74
2023-03-18T01:37:53.375Z,58.29
2023-03-18T01:40:22.888Z,57.61
2023-03-18T01:42:57.087Z,58.18
2023-03-18T01:45:30.169Z,58.10
2023-03-18T01:48:01.273Z,57.57
2023-03-18T01:50:33.288Z,57.88
2023-03-18T01:53:07.885Z,58.05
2023-03-18T01:55:38.106Z,57.97
2023-03-18T01:58:11.335Z,57.58
2023-03-18T02:00:46.003Z,57.57
2023-03-18T02:03:14.043Z,57.00
2023-03-18T02:05:44.338Z,57.18
2023-03-18T02:08:12.841Z,56.01
2023-03-18T02:10:40.943Z,55.76
2023-03-18T02:13:12.487Z,56.38
2023-03-18T02:15:48.594Z,55.98
2023-03-18T02:18:20.183Z,56.67
2023-03-18T02:21:01.817Z,56.51
2023-03-18T02:23:43.466Z,56.47
2023-03-18T02:26:18.655Z,56.68
2023-03-18T02:28:50.390Z,56.89
2023-03-18T02:31:20.361Z,56.89
2023-03-18T02:33:48.735Z,57.28
2023-03-18T02:36:22.490Z,57.08
2023-03-18T02:38:53.870Z,57.53
2023-03-18T02:41:28.609Z,57.30
2023-03-18T02:43:59.117Z,57.69
2023-03-18T02:46:37.144Z,58.00
2023-03-18T02:49:07.702Z,59.66
2023-03-18T02:51:37.505Z,61.36
2023-03-18T02:54:10.171Z,60.60
2023-03-18T02:56:38.739Z,59.81
2023-03-18T02:59:08.358Z,60.16
2023-03-18T03:01:38.685Z,60.65
2023-03-18T03:04:07.901Z,59.25
2023-03-18T03:06:36.780Z,58.88
2023-03-18T03:09:05.964Z,59.08
2023-03-18T03:11:36.340Z,58.38
2023-03-18T03:14:14.196Z,58.87
2023-03-18T03:16:43.688Z,59.41
2023-03-18T03:19:12.351Z,60.49
2023-03-18T03:21:40.183Z,60.53
2023-03-18T03:24:09.889Z,60.99
2023-03-18T03:26:40.912Z,60.69
2023-03-18T03:29:08.939Z,61.48
2023-03-18T03:31:38.225Z,62.73
2023-03-18T03:34:07.697Z,62.54
2023-03-18T03:36:36.560Z,62.79
2023-03-18T03:39:06.177Z,64.10
2023-03-18T03:41:36.316Z,65.30
2023-03-18T03:44:04.773Z,63.94
2023-03-18T03:46:32.890Z,64.17
2023-03-18T03:49:02.640Z,63.52
2023-03-18T03:51:30.660Z,65.99
2023-03-18T03:53:59.135Z,64.64
2023-03-18T03:56:27.142Z,63.33
2023-03-18T03:58:55.063Z,63.49
2023-03-18T04:01:28.271Z,65.22
2023-03-18T04:03:58.939Z,65.76
2023-03-18T04:06:28.260Z,66.71
2023-03-18T04:09:02.015Z,66.08
2023-03-18T04:11:29.976Z,66.37
2023-03-18T04:13:58.204Z,66.69
2023-03-18T04:16:28.483Z,66.60
2023-03-18T04:18:56.345Z,66.29
2023-03-18T04:21:25.433Z,66.48
2023-03-18T04:23:58.095Z,65.62
2023-03-18T04:26:27.218Z,66.88
2023-03-18T04:28:59.249Z,66.54
2023-03-18T04:31:28.440Z,67.89
2023-03-18T04:33:57.385Z,68.05
2023-03-18T04:36:25.261Z,68.05
2023-03-18T04:38:54.211Z,68.61
2023-03-18T04:41:24.900Z,68.54
2023-03-18T04:43:54.958Z,68.96
2023-03-18T04:46:29.971Z,68.17
2023-03-18T04:48:58.428Z,68.36
2023-03-18T04:51:27.433Z,68.65
2023-03-18T04:53:56.486Z,68.13
2023-03-18T04:56:29.460Z,67.01
2023-03-18T04:58:59.164Z,67.36
2023-03-18T05:01:31.475Z,68.30
2023-03-18T05:03:59.679Z,69.23
2023-03-18T05:06:37.279Z,67.99
2023-03-18T05:09:10.232Z,68.54
2023-03-18T05:11:39.499Z,68.89
2023-03-18T05:14:15.598Z,69.62
2023-03-18T05:16:47.532Z,69.19
2023-03-18T05:19:15.701Z,68.88
2023-03-18T05:21:51.117Z,69.69
2023-03-18T05:24:20.167Z,69.63
2023-03-18T05:26:49.560Z,70.07
2023-03-18T05:29:19.686Z,70.76
2023-03-18T05:32:08.133Z,69.46
2023-03-18T05:34:37.831Z,70.61
2023-03-18T05:37:08.793Z,69.80
2023-03-18T05:39:39.332Z,69.64
2023-03-18T05:42:14.194Z,69.01
2023-03-18T05:44:44.583Z,69.33
2023-03-18T05:47:15.026Z,71.17
2023-03-18T05:49:57.544Z,71.77
2023-03-18T05:52:26.189Z,70.31
2023-03-18T05:55:01.077Z,71.78
2023-03-18T05:57:34.778Z,70.74
2023-03-18T06:00:07.056Z,71.58
2023-03-18T06:02:44.916Z,72.05
2023-03-18T06:05:14.554Z,70.23
2023-03-18T06:07:43.123Z,69.78
2023-03-18T06:10:12.302Z,70.17
2023-03-18T06:12:42.413Z,72.66
2023-03-18T06:15:12.240Z,71.69
2023-03-18T06:17:41.206Z,72.05
2023-03-18T06:20:11.754Z,72.56
2023-03-18T06:22:40.053Z,72.54
2023-03-18T06:25:10.063Z,71.22
2023-03-18T06:27:41.974Z,71.09
2023-03-18T06:30:11.269Z,70.56
2023-03-18T06:32:41.288Z,70.07
2023-03-18T06:35:10.511Z,70.25
2023-03-18T06:37:40.025Z,70.78
2023-03-18T06:40:10.578Z,70.40
2023-03-18T06:42:39.180Z,70.30
2023-03-18T06:45:15.306Z,70.08
2023-03-18T06:47:55.417Z,70.56
2023-03-18T06:50:24.382Z,73.44
2023-03-18T06:52:52.454Z,72.67
2023-03-18T06:55:26.429Z,70.42
2023-03-18T06:57:54.432Z,69.66
2023-03-18T07:00:29.075Z,70.61
2023-03-18T07:02:56.987Z,70.54
2023-03-18T07:05:27.423Z,69.72
2023-03-18T07:07:56.813Z,69.63
2023-03-18T07:10:29.719Z,68.68
2023-03-18T07:13:11.060Z,69.00
2023-03-18T07:15:42.856Z,67.82
2023-03-18T07:18:12.234Z,67.63
2023-03-18T07:20:40.505Z,67.99
2023-03-18T07:23:08.454Z,66.84
2023-03-18T07:25:36.714Z,65.84
2023-03-18T07:28:05.732Z,65.05
2023-03-18T07:30:34.915Z,64.36
2023-03-18T07:33:05.736Z,63.71
2023-03-18T07:35:33.938Z,62.35
2023-03-18T07:38:02.081Z,63.15
2023-03-18T07:40:29.974Z,61.80
2023-03-18T07:42:57.854Z,61.60
2023-03-18T07:45:25.764Z,60.96
2023-03-18T07:47:54.497Z,60.76
2023-03-18T07:50:23.777Z,60.18
2023-03-18T07:52:52.065Z,59.30
2023-03-18T07:55:20.019Z,58.39
2023-03-18T07:57:49.134Z,58.07
2023-03-18T08:00:18.446Z,57.44
2023-03-18T08:02:46.366Z,57.56
2023-03-18T08:05:15.822Z,57.22
2023-03-18T08:07:45.097Z,55.67
2023-03-18T08:10:14.897Z,56.20
2023-03-18T08:12:52.509Z,55.74
2023-03-18T08:15:22.236Z,55.87
2023-03-18T08:17:50.244Z,55.11
2023-03-18T08:20:18.388Z,54.98
2023-03-18T08:22:48.519Z,54.43
2023-03-18T08:25:16.536Z,54.27
2023-03-18T08:27:44.694Z,53.04
2023-03-18T08:30:13.781Z,53.48
2023-03-18T08:32:41.997Z,51.81
2023-03-18T08:35:11.229Z,52.45
2023-03-18T08:37:39.082Z,51.42
2023-03-18T08:40:09.859Z,50.25
2023-03-18T08:42:37.755Z,50.01
2023-03-18T08:45:06.515Z,49.81
2023-03-18T08:47:34.376Z,49.33
2023-03-18T08:50:02.348Z,49.57
2023-03-18T08:52:30.843Z,49.47
2023-03-18T08:54:58.749Z,49.25
2023-03-18T08:57:28.222Z,49.99
2023-03-18T08:59:56.037Z,50.10
2023-03-18T09:02:23.825Z,49.27
2023-03-18T09:04:51.691Z,48.99
2023-03-18T09:07:19.697Z,49.02
2023-03-18T09:09:47.706Z,48.15
2023-03-18T09:12:16.310Z,48.53
2023-03-18T09:14:45.554Z,47.96
2023-03-18T09:17:14.618Z,48.03
2023-03-18T09:19:42.486Z,47.60
2023-03-18T09:22:10.425Z,48.22
2023-03-18T09:24:38.494Z,47.18
2023-03-18T09:27:07.489Z,46.61
2023-03-18T09:29:35.432Z,46.70
2023-03-18T09:32:05.927Z,47.83
2023-03-18T09:34:34.976Z,46.69
2023-03-18T09:37:02.758Z,46.25
2023-03-18T09:39:30.630Z,46.49
2023-03-18T09:42:14.220Z,46.15
2023-03-18T09:44:43.608Z,46.46
2023-03-18T09:47:43.295Z,45.67
2023-03-18T09:50:22.767Z,45.53
2023-03-18T09:52:59.687Z,45.47
2023-03-18T09:55:35.715Z,43.75
2023-03-18T09:58:07.960Z,44.58
2023-03-18T10:00:39.248Z,45.25
2023-03-18T10:03:15.892Z,45.01
2023-03-18T10:05:51.046Z,45.41
2023-03-18T10:08:26.573Z,44.14
2023-03-18T10:10:54.525Z,43.37
2023-03-18T10:13:27.078Z,43.56
2023-03-18T10:15:57.715Z,44.65
2023-03-18T10:18:32.062Z,45.64
2023-03-18T10:21:14.060Z,43.35
2023-03-18T10:23:50.728Z,41.86
2023-03-18T10:26:24.222Z,43.76
2023-03-18T10:29:28.411Z,43.61
2023-03-18T10:32:09.454Z,44.04
2023-03-18T10:34:42.878Z,44.44
2023-03-18T10:37:20.109Z,44.86
2023-03-18T10:39:49.428Z,45.44
2023-03-18T10:42:21.944Z,43.63
2023-03-18T10:44:51.428Z,42.61
2023-03-18T10:47:23.366Z,43.55
2023-03-18T10:50:04.488Z,43.45
2023-03-18T10:52:37.071Z,43.60
2023-03-18T10:55:05.929Z,43.95
2023-03-18T10:57:33.746Z,44.69
2023-03-18T11:00:01.710Z,44.57
2023-03-18T11:02:34.203Z,43.75
2023-03-18T11:05:07.909Z,43.90
2023-03-18T11:07:36.085Z,43.06
2023-03-18T11:10:18.091Z,43.78
2023-03-18T11:12:46.186Z,42.08
2023-03-18T11:15:14.660Z,42.33
2023-03-18T11:17:43.411Z,41.65
2023-03-18T11:20:25.257Z,41.26
2023-03-18T11:22:57.494Z,41.71
2023-03-18T11:25:29.208Z,41.86
2023-03-18T11:28:00.350Z,42.26
2023-03-18T11:30:34.645Z,43.25
2023-03-18T11:33:08.086Z,42.77
2023-03-18T11:35:41.817Z,42.99
2023-03-18T11:38:16.634Z,42.11
2023-03-18T11:40:44.836Z,41.59
2023-03-18T11:43:20.041Z,42.27
2023-03-18T11:45:52.382Z,42.44
2023-03-18T11:48:30.366Z,43.03
2023-03-18T11:51:24.605Z,42.20
2023-03-18T11:54:06.790Z,40.89
2023-03-18T11:56:36.256Z,42.09
2023-03-18T11:59:42.766Z,39.97
2023-03-18T12:02:32.145Z,40.76
2023-03-18T12:05:24.696Z,41.63
2023-03-18T12:08:04.225Z,40.49
2023-03-18T12:10:36.235Z,40.24
2023-03-18T12:13:14.476Z,39.85
2023-03-18T12:15:53.164Z,40.78
2023-03-18T12:18:39.092Z,41.23
2023-03-18T12:21:27.851Z,40.42
2023-03-18T12:24:09.218Z,40.73
2023-03-18T12:26:46.524Z,41.32
2023-03-18T12:29:42.466Z,39.44
2023-03-18T12:32:20.579Z,39.60
2023-03-18T12:35:20.687Z,38.97
2023-03-18T12:38:03.881Z,39.17
2023-03-18T12:40:48.789Z,38.89
2023-03-18T12:43:28.513Z,39.16
2023-03-18T12:46:02.475Z,40.32
2023-03-18T12:48:43.775Z,39.78
2023-03-18T12:51:15.289Z,38.72
2023-03-18T12:53:46.518Z,39.27
2023-03-18T12:56:19.807Z,38.68
2023-03-18T12:58:52.247Z,39.75
2023-03-18T13:01:24.679Z,39.10
2023-03-18T13:03:58.272Z,38.44
2023-03-18T13:06:31.913Z,38.94
2023-03-18T13:09:06.713Z,39.68
2023-03-18T13:11:47.372Z,38.14
2023-03-18T13:14:23.265Z,37.72
2023-03-18T13:16:52.800Z,38.50
2023-03-18T13:19:20.750Z,37.56
2023-03-18T13:21:53.738Z,37.52
2023-03-18T13:24:46.824Z,36.89
2023-03-18T13:27:46.743Z,35.19
2023-03-18T13:30:25.810Z,35.58
2023-03-18T13:33:20.977Z,35.62
2023-03-18T13:36:20.473Z,35.34
2023-03-18T13:39:06.655Z,35.39
2023-03-18T13:41:56.500Z,35.07
2023-03-18T13:44:38.886Z,36.10
2023-03-18T13:47:10.338Z,34.86
2023-03-18T13:49:39.623Z,33.84
2023-03-18T13:52:24.328Z,34.21
2023-03-18T13:54:52.685Z,33.53
2023-03-18T13:57:35.781Z,33.00
2023-03-18T14:00:33.460Z,33.73
2023-03-18T14:03:21.895Z,34.42
2023-03-18T14:05:51.558Z,35.78
2023-03-18T14:08:35.784Z,35.34
2023-03-18T14:11:50.008Z,35.01
2023-03-18T14:14:54.823Z,35.17
2023-03-18T14:17:47.713Z,34.70
2023-03-18T14:20:25.795Z,34.47
2023-03-18T14:22:55.075Z,34.35
2023-03-18T14:25:42.630Z,35.01
2023-03-18T14:28:20.524Z,34.59
2023-03-18T14:30:56.723Z,34.05
2023-03-18T14:33:34.455Z,34.06
2023-03-18T14:36:10.285Z,34.16
2023-03-18T14:38:50.501Z,34.87
2023-03-18T14:41:23.894Z,34.26
2023-03-18T14:44:02.364Z,34.07
2023-03-18T14:46:34.901Z,34.79
2023-03-18T14:49:25.451Z,35.10
2023-03-18T14:51:55.248Z,34.80
2023-03-18T14:54:27.127Z,33.98
2023-03-18T14:56:56.663Z,33.75
2023-03-18T14:59:26.382Z,34.74
2023-03-18T15:01:55.588Z,37.87
2023-03-18T15:04:26.681Z,41.25
2023-03-18T15:06:56.567Z,42.86
2023-03-18T15:09:27.449Z,42.55
2023-03-18T15:11:55.861Z,42.35
2023-03-18T15:14:27.059Z,42.78
2023-03-18T15:16:55.841Z,42.06
2023-03-18T15:19:26.806Z,43.49
2023-03-18T15:21:55.759Z,44.38
2023-03-18T15:24:26.951Z,44.82
2023-03-18T15:26:59.011Z,45.14
2023-03-18T15:29:29.498Z,44.63
2023-03-18T15:32:10.377Z,44.39
2023-03-18T15:34:43.689Z,43.85
2023-03-18T15:37:36.183Z,44.17
2023-03-18T15:40:30.800Z,44.91
2023-03-18T15:43:04.186Z,44.66
2023-03-18T15:45:32.980Z,45.47
2023-03-18T15:48:08.231Z,45.43
2023-03-18T15:50:38.261Z,45.59
2023-03-18T15:53:19.475Z,46.06
2023-03-18T15:55:50.142Z,45.94
2023-03-18T15:58:23.919Z,46.51
2023-03-18T16:00:54.226Z,46.73
2023-03-18T16:03:25.320Z,46.90
2023-03-18T16:05:55.228Z,47.24
2023-03-18T16:08:24.050Z,46.63
2023-03-18T16:10:54.697Z,47.47
2023-03-18T16:13:25.508Z,47.38
2023-03-18T16:15:54.188Z,47.34
2023-03-18T16:18:22.801Z,46.80
2023-03-18T16:20:51.120Z,47.41
2023-03-18T16:23:20.704Z,47.65
2023-03-18T16:25:50.767Z,48.10
2023-03-18T16:28:22.109Z,47.68
2023-03-18T16:30:52.150Z,48.11
2023-03-18T16:33:21.650Z,47.72
2023-03-18T16:35:56.694Z,48.47
2023-03-18T16:38:26.715Z,48.59
2023-03-18T16:40:55.456Z,48.58
2023-03-18T16:43:26.964Z,48.60
2023-03-18T16:45:58.510Z,48.61
2023-03-18T16:48:28.087Z,48.54
2023-03-18T16:50:57.883Z,48.89
2023-03-18T16:53:29.939Z,48.77
2023-03-18T16:56:00.227Z,48.81
2023-03-18T16:58:31.067Z,49.03
2023-03-18T17:00:59.963Z,49.25
2023-03-18T17:03:29.328Z,49.39
2023-03-18T17:05:57.498Z,49.84
2023-03-18T17:08:27.121Z,50.42
2023-03-18T17:10:58.345Z,50.30
2023-03-18T17:13:29.125Z,50.44
2023-03-18T17:15:57.013Z,50.62
2023-03-18T17:18:26.172Z,50.60
2023-03-18T17:20:54.036Z,50.71
2023-03-18T17:23:26.707Z,51.03
2023-03-18T17:25:59.225Z,51.04
2023-03-18T17:28:35.537Z,51.00
2023-03-18T17:31:03.749Z,51.49
2023-03-18T17:33:33.861Z,51.59
2023-03-18T17:36:02.648Z,51.24
2023-03-18T17:38:32.277Z,51.20
2023-03-18T17:41:03.788Z,51.57
2023-03-18T17:43:33.828Z,51.97
2023-03-18T17:46:03.669Z,52.10
2023-03-18T17:48:32.963Z,52.03
2023-03-18T17:51:03.527Z,51.75
2023-03-18T17:53:33.988Z,51.18
2023-03-18T17:56:04.734Z,51.58
2023-03-18T17:58:34.087Z,51.60
2023-03-18T18:01:06.566Z,51.68
2023-03-18T18:03:36.880Z,52.39
2023-03-18T18:06:06.763Z,52.94
2023-03-18T18:08:36.112Z,52.39
2023-03-18T18:11:20.041Z,53.82
2023-03-18T18:13:49.081Z,54.91
2023-03-18T18:16:17.843Z,55.72
2023-03-18T18:18:48.241Z,57.32
2023-03-18T18:21:20.398Z,57.68
2023-03-18T18:23:48.681Z,58.19
2023-03-18T18:26:21.388Z,57.89
2023-03-18T18:28:51.048Z,58.17
2023-03-18T18:31:21.023Z,58.19
2023-03-18T18:33:50.462Z,59.32
2023-03-18T18:36:18.690Z,59.68
2023-03-18T18:38:46.978Z,59.46
2023-03-18T18:41:15.282Z,60.56
2023-03-18T18:43:44.659Z,60.90
2023-03-18T18:46:14.957Z,60.96
2023-03-18T18:48:49.800Z,61.16
2023-03-18T18:51:20.327Z,61.24
2023-03-18T18:53:49.011Z,62.61
2023-03-18T18:56:19.869Z,61.25
2023-03-18T18:58:49.585Z,62.63
2023-03-18T19:01:18.349Z,63.43
2023-03-18T19:03:46.867Z,63.52
2023-03-18T19:06:25.877Z,63.79
2023-03-18T19:08:55.158Z,64.43
2023-03-18T19:11:24.651Z,65.02
2023-03-18T19:13:55.153Z,63.37
2023-03-18T19:16:37.226Z,64.30
2023-03-18T19:19:05.141Z,64.71
2023-03-18T19:21:33.736Z,65.15
2023-03-18T19:24:02.222Z,64.69
2023-03-18T19:26:30.285Z,63.92
2023-03-18T19:29:00.044Z,64.77
2023-03-18T19:31:30.704Z,65.97
2023-03-18T19:34:00.439Z,65.58
2023-03-18T19:36:31.541Z,66.98
2023-03-18T19:39:01.184Z,66.91
2023-03-18T19:41:29.709Z,66.47
2023-03-18T19:44:03.892Z,67.55
2023-03-18T19:46:37.017Z,67.53
2023-03-18T19:49:10.441Z,67.73
2023-03-18T19:51:38.473Z,65.55
2023-03-18T19:54:21.164Z,65.41
2023-03-18T19:56:49.207Z,64.82
2023-03-18T19:59:23.250Z,66.00
2023-03-18T20:01:52.117Z,67.07
2023-03-18T20:04:21.580Z,66.88
2023-03-18T20:06:50.432Z,67.82
2023-03-18T20:09:18.812Z,67.48
2023-03-18T20:11:47.041Z,67.62
2023-03-18T20:14:28.160Z,67.34
2023-03-18T20:16:58.846Z,68.44
2023-03-18T20:19:26.757Z,68.26
2023-03-18T20:21:55.209Z,66.90
2023-03-18T20:24:29.742Z,66.47
2023-03-18T20:26:58.344Z,68.23
2023-03-18T20:29:28.367Z,69.18
2023-03-18T20:31:58.937Z,69.21
2023-03-18T20:34:27.122Z,68.96
2023-03-18T20:36:55.254Z,69.14
2023-03-18T20:39:24.090Z,69.79
2023-03-18T20:41:51.926Z,69.77
2023-03-18T20:44:19.800Z,69.86
2023-03-18T20:46:49.036Z,69.56
2023-03-18T20:49:17.131Z,69.19
2023-03-18T20:51:45.584Z,69.00
2023-03-18T20:54:18.705Z,69.24
2023-03-18T20:56:46.942Z,68.06
2023-03-18T20:59:14.913Z,68.03
2023-03-18T21:01:42.984Z,67.99
2023-03-18T21:04:13.803Z,68.39
2023-03-18T21:06:42.110Z,68.99
2023-03-18T21:09:12.316Z,70.84
2023-03-18T21:11:40.567Z,70.05
2023-03-18T21:14:08.557Z,70.20
2023-03-18T21:16:38.015Z,69.88
2023-03-18T21:19:05.916Z,70.91
2023-03-18T21:21:39.217Z,70.13
2023-03-18T21:24:23.703Z,71.65
2023-03-18T21:27:03.763Z,71.95
2023-03-18T21:29:32.886Z,71.03
2023-03-18T21:32:02.434Z,71.17
2023-03-18T21:34:30.496Z,71.40
2023-03-18T21:36:59.806Z,70.90
2023-03-18T21:39:27.811Z,70.68
2023-03-18T21:41:56.167Z,71.93
2023-03-18T21:44:24.032Z,71.31
2023-03-18T21:46:52.001Z,72.28
2023-03-18T21:49:19.878Z,72.63
2023-03-18T21:51:47.725Z,71.51
2023-03-18T21:54:19.784Z,70.73
2023-03-18T21:56:47.680Z,71.80
2023-03-18T21:59:15.514Z,72.82
2023-03-18T22:01:43.375Z,72.90
2023-03-18T22:04:12.210Z,72.98
2023-03-18T22:06:40.115Z,72.87
2023-03-18T22:09:08.713Z,72.27
2023-03-18T22:11:37.977Z,72.87
2023-03-18T22:14:05.809Z,72.42
2023-03-18T22:16:33.640Z,72.61
2023-03-18T22:19:01.496Z,70.69
2023-03-18T22:21:29.617Z,70.82
2023-03-18T22:23:58.230Z,71.74
2023-03-18T22:26:26.276Z,72.24
2023-03-18T22:28:55.596Z,72.51
2023-03-18T22:31:26.394Z,72.06
2023-03-18T22:33:55.307Z,71.74
2023-03-18T22:36:25.440Z,73.26
2023-03-18T22:38:53.481Z,72.71
2023-03-18T22:41:23.124Z,72.37
2023-03-18T22:43:51.717Z,72.51
2023-03-18T22:46:21.089Z,72.61
2023-03-18T22:48:49.004Z,72.72
2023-03-18T22:51:24.108Z,72.04
2023-03-18T22:53:53.791Z,71.42
2023-03-18T22:56:23.098Z,72.71
2023-03-18T22:58:51.435Z,72.21
2023-03-18T23:01:27.493Z,73.29
2023-03-18T23:03:55.732Z,72.96
2023-03-18T23:06:24.852Z,73.18
2023-03-18T23:08:52.763Z,73.80
2023-03-18T23:11:20.798Z,73.48
2023-03-18T23:13:50.796Z,74.39
2023-03-18T23:16:22.036Z,74.21
2023-03-18T23:18:51.074Z,74.88
2023-03-18T23:21:21.968Z,75.41
2023-03-18T23:23:50.095Z,75.34
2023-03-18T23:26:18.399Z,75.58
2023-03-18T23:28:46.556Z,75.43
2023-03-18T23:31:14.782Z,75.78
2023-03-18T23:33:44.519Z,76.27
2023-03-18T23:36:13.321Z,76.38
2023-03-18T23:38:41.283Z,76.21
2023-03-18T23:41:09.242Z,77.06
2023-03-18T23:43:37.253Z,78.05
2023-03-18T23:46:05.309Z,76.91
2023-03-18T23:48:33.181Z,76.02
2023-03-18T23:51:02.446Z,76.42
2023-03-18T23:53:30.316Z,77.23
2023-03-18T23:55:58.194Z,76.03
2023-03-18T23:58:26.058Z,76.27
